Startpagina
METAR-TAF:

METAR-TAF

Vliegvelden :

Aéroport de Paris-Beauvais-Tillé

Beauvais, Frankrijk

breedte: 49-28N, lengte: 002-07E, hoogte: 109 m

Actueel weer

Dit bericht is 21 minuten geleden gemaakt, om 03:30 UTC
Weinig wind
Temperatuur 18°C
Vochtigheid 94%
Druk 1021 hPa
Zicht 10 km of meer
Gebroken wolken op 1400 ft
Geheel bewolkt op 4600 ft

METAR: LFOB 210330Z AUTO 00000KT 9999 BKN014 OVC046 18/17 Q1021 BECMG OVC004

Tijdstip: 05:51 (03:51 UTC)

Verwachting

Dit bericht is 21 minuten geleden gemaakt, om 03:30 UTC
Verwachting geldig van 21 om 03 UTC tot 21 om 24 UTC
Wind 5 kt uit het noordnoordwesten
Zicht 10 km of meer
Gebroken wolken op 1300 ft
Wijzigt naar
van 21 om 10 UTC tot 21 om 12 UTC
Gebroken wolken op 2000 ft

TAF: LFOB 210330Z 2103/2124 33005KT 9999 BKN013 BECMG 2110/2112 BKN020

Waarnemingen en weersverwachtingen van meer dan 4000 vliegvelden (METAR en TAF).

De beschikbare stations zijn de gele en rode punten op de kaart.

Ga met uw muis naar het station om de naam te zien.

Klik dan om waarnemingen en weersverwachtingen te zien.

kaart wijzigen: klik op de groene knoppen met een zwart kruis om in te zoomen, op de groene knop met een streepje om uit te zoomen of op de groene pijlen voor aangrenzende kaarten.


METAR-TAF: